Aeroporto :
LOGIN :

Iscrizione | Disclaimer

   EN    FR    IT 

 










Sommario :    VFR   VFR Marginale   IFR   IFR Intensivo   IFR Molto Intensivo
Visibilità : 
Base nubi : 
>= 8 km
>= 3000ft
5 / 8 km
1000 / 3000 ft
1500m / 5 km
500 / 1000 ft
800 / 1500m
200 / 500 ft
< 800m
< 200 ft
Simboli :   Temporali  Nebbia  Neve Forte  Precipitazioni Forti  Vento > 20 kt
SIGMETs :   Varie  Temporali  Ghiacco  Turbolenza  Onda orograficha  Ceneri Vulcaniche







- Altitudine del aeroporto : 55 ft
- Codice IATA : DSA
- Carte del aeroporto


EGCN - Robin Hood Doncaster Sheffield

ULTIMO METAR :
  • 212220Z 03003KT 9999 OVC025 04/03 Q1028

METARs OBSOLETI :
  • 212150Z 03004KT 9999 BKN027 04/03 Q1028
  • 212120Z 03004KT 9999 SCT034 BKN043 03/03 Q1028
  • 212050Z 03004KT 9999 BKN033 BKN048 04/03 Q1028
  • 212020Z 36004KT 9999 FEW013 SCT018 BKN049 05/04 Q1028
  • 211950Z 36004KT 9999 BKN037 05/04 Q1028

TAF TAF EGCN
Valido dal 21 a 18 ore il 22 a 18 ore UTC


211656Z 2118/2218 04009KT 9999 SCT010 BKN030
TEMPO 2121/2210 6000
PROB30
TEMPO 2202/2209 1400 BR BKN004
Nessun NOTAM noto per questo aeroporto.



MetMap, La meteo Aeronautica in un colpo d'occhio ! - Copyright ORBIFLY Dicembre 2007 - Disclaimer

ORBIFLY MET'MAP TEAM :

Programmazione e sviluppo : Alexandra Zaïnal
Concezione e sviluppo : Baudouin d'Aumeries
Co-Programmazione e sviluppo : Marc-Olivier Méhu
Supporto tecnico e logistico : Manuel Goepfert
Aiuto per la traduzione : Arnaldo La Scala

Contatto : metmap@orbifly.com




FONTI E CREDITI :

   NOAA